Time;durP1;ratioP1;P1;durP2;ratioP2;P2;SDS_P1;SDS_P2;PMS_P1;PMS_P2;Temp;Humidity;BMP_temperature;BMP_pressure;BME280_temperature;BME280_humidity;BME280_pressure;Samples;Min_cycle;Max_cycle;Signal;HPM_P1;HPM_P2
2022/09/09 00:02:06;;;;;;;2.80;2.00;;;;;;;15.01;93.28;155215.88;5053950;28;20449;-77
2022/09/09 00:04:34;;;;;;;2.17;1.90;;;;;;;14.96;96.45;155202.81;5069566;28;20445;-77
2022/09/09 00:07:05;;;;;;;3.13;1.80;;;;;;;14.94;96.00;155197.66;5045507;28;20865;-77
2022/09/09 00:09:39;;;;;;;3.40;1.87;;;;;;;14.96;95.16;155202.81;5053364;28;20450;-77
2022/09/09 00:12:12;;;;;;;3.83;2.00;;;;;;;14.95;94.23;155200.25;5054580;28;20439;-77
2022/09/09 00:14:45;;;;;;;2.10;1.70;;;;;;;14.96;95.93;155202.81;5052487;28;20445;-77
2022/09/09 00:17:15;;;;;;;3.50;2.20;;;;;;;14.98;95.59;155208.06;5052636;28;20446;-77
2022/09/09 00:19:50;;;;;;;6.40;2.30;;;;;;;14.98;96.07;155208.06;5052375;28;20810;-77
2022/09/09 00:22:19;;;;;;;2.80;2.10;;;;;;;14.97;95.28;155205.44;5068578;28;20442;-77
2022/09/09 00:24:47;;;;;;;2.00;1.70;;;;;;;14.92;94.89;155192.47;5052073;28;20453;-77
2022/09/09 00:27:20;;;;;;;2.53;1.60;;;;;;;14.92;95.94;155192.47;5052300;28;20545;-77
2022/09/09 00:29:53;;;;;;;1.80;1.63;;;;;;;14.91;94.86;155191.16;5053317;28;20442;-77
2022/09/09 00:32:21;;;;;;;2.83;2.00;;;;;;;14.94;94.89;155197.66;5052199;28;20489;-77
2022/09/09 00:34:50;;;;;;;3.17;1.83;;;;;;;14.97;94.75;155205.44;5051744;28;20475;-77
2022/09/09 00:37:19;;;;;;;3.20;2.37;;;;;;;14.96;96.05;155204.13;5052021;28;20454;-77
2022/09/09 00:39:47;;;;;;;1.67;1.40;;;;;;;14.96;97.08;155202.81;5068061;28;20444;-77
2022/09/09 00:42:16;;;;;;;2.63;2.43;;;;;;;14.99;95.43;155211.94;5051793;28;20459;-77
2022/09/09 00:44:54;;;;;;;2.43;1.77;;;;;;;15.05;96.33;155226.22;5034879;28;20423;-77
2022/09/09 00:47:42;;;;;;;3.87;1.90;;;;;;;15.07;96.57;155232.72;5051725;28;20450;-77
2022/09/09 00:50:29;;;;;;;4.30;2.30;;;;;;;15.13;95.33;155248.34;5051322;28;20443;-77
2022/09/09 00:53:06;;;;;;;3.00;1.83;;;;;;;15.19;95.37;155263.94;5051982;28;20871;-77
2022/09/09 00:55:40;;;;;;;1.97;1.60;;;;;;;15.25;95.42;155278.19;5068441;28;20450;-77
2022/09/09 00:58:07;;;;;;;3.27;1.70;;;;;;;15.28;94.41;155286.00;5053376;28;20783;-77
2022/09/09 01:00:41;;;;;;;2.93;2.00;;;;;;;15.30;93.08;155291.22;5034971;28;20507;-77
2022/09/09 01:03:24;;;;;;;4.00;1.30;;;;;;;15.33;92.77;155298.97;5051606;28;20855;-77
2022/09/09 01:06:00;;;;;;;3.60;2.00;;;;;;;15.35;91.44;155302.91;5033204;28;20867;-77
2022/09/09 01:08:51;;;;;;;1.67;1.50;;;;;;;15.38;90.67;155311.97;5034712;28;20896;-77
2022/09/09 01:11:24;;;;;;;3.93;1.50;;;;;;;15.40;90.77;155315.91;5031409;28;20536;-77
2022/09/09 01:13:58;;;;;;;3.77;1.70;;;;;;;15.42;90.44;155322.41;5053040;28;20486;-77
2022/09/09 01:16:25;;;;;;;3.87;1.23;;;;;;;15.44;91.45;155327.59;5034554;28;20450;-77
2022/09/09 01:18:54;;;;;;;2.10;1.33;;;;;;;15.45;90.22;155330.19;5052856;28;20813;-77
2022/09/09 01:21:30;;;;;;;2.27;1.50;;;;;;;15.40;89.93;155317.22;5034738;28;20526;-77
2022/09/09 01:24:20;;;;;;;1.70;1.37;;;;;;;15.35;89.46;155304.22;5034076;28;20553;-77
2022/09/09 01:27:02;;;;;;;2.17;1.67;;;;;;;15.37;90.30;155309.41;5033814;28;20486;-77
2022/09/09 01:29:29;;;;;;;2.00;1.20;;;;;;;15.43;90.11;155325.00;5051041;28;20508;-77
2022/09/09 01:31:58;;;;;;;2.73;1.53;;;;;;;15.42;89.70;155321.09;5034551;28;20549;-77
2022/09/09 01:34:27;;;;;;;3.83;1.50;;;;;;;15.39;89.14;155314.59;5033986;28;20439;-77
2022/09/09 01:36:58;;;;;;;3.43;1.40;;;;;;;15.42;88.50;155322.41;5034212;28;20553;-77
2022/09/09 01:39:26;;;;;;;2.40;1.40;;;;;;;15.40;86.95;155317.22;5034373;28;20437;-77
2022/09/09 01:42:02;;;;;;;3.53;1.60;;;;;;;15.41;89.09;155319.78;5034315;28;20446;-77
2022/09/09 01:44:30;;;;;;;2.10;1.23;;;;;;;15.42;88.38;155322.41;5033613;28;20503;-77
2022/09/09 01:46:56;;;;;;;3.93;1.37;;;;;;;15.40;88.61;155317.22;5065680;28;20896;-77
2022/09/09 01:49:23;;;;;;;2.50;1.10;;;;;;;15.42;88.34;155322.41;5050403;28;20531;-77
2022/09/09 01:51:53;;;;;;;2.43;1.60;;;;;;;15.43;87.92;155325.00;5050962;28;20454;-77
2022/09/09 01:54:27;;;;;;;2.70;1.87;;;;;;;15.42;88.78;155321.09;5033986;28;20438;-77
2022/09/09 01:57:02;;;;;;;2.53;1.40;;;;;;;15.42;88.44;155322.41;5014072;28;20551;-77
2022/09/09 01:59:41;;;;;;;2.00;1.80;;;;;;;15.43;88.92;155323.72;5030913;28;20434;-77
2022/09/09 02:02:11;;;;;;;2.90;1.40;;;;;;;15.38;88.06;155310.72;5048712;28;20451;-77
2022/09/09 02:04:45;;;;;;;2.13;1.50;;;;;;;15.36;87.97;155305.47;5049977;28;20463;-77
2022/09/09 02:07:31;;;;;;;2.07;1.27;;;;;;;15.30;88.04;155291.22;5050156;28;20545;-77
2022/09/09 02:10:03;;;;;;;1.60;1.50;;;;;;;15.30;89.25;155291.22;5033758;28;20563;-77
2022/09/09 02:12:31;;;;;;;1.93;1.40;;;;;;;15.25;88.64;155278.19;5034141;28;20841;-77
2022/09/09 02:15:04;;;;;;;4.00;1.17;;;;;;;15.21;91.06;155269.13;5033162;28;20447;-77
2022/09/09 02:17:40;;;;;;;1.40;1.30;;;;;;;15.19;90.38;155263.94;5033783;28;20975;-77
2022/09/09 02:20:14;;;;;;;2.93;1.40;;;;;;;15.14;90.29;155249.66;5067149;28;20439;-77
2022/09/09 02:22:54;;;;;;;3.57;1.60;;;;;;;15.10;89.95;155239.22;5050723;28;20462;-77
2022/09/09 02:25:25;;;;;;;3.73;1.30;;;;;;;15.05;90.64;155227.53;5064721;28;20443;-77
2022/09/09 02:27:54;;;;;;;3.57;1.53;;;;;;;15.01;91.90;155217.13;5033993;28;20462;-77
2022/09/09 02:30:22;;;;;;;1.60;1.50;;;;;;;14.95;90.63;155200.25;5033612;28;20512;-77
2022/09/09 02:32:56;;;;;;;2.10;1.37;;;;;;;14.89;90.81;155185.97;5033593;28;20739;-77
2022/09/09 02:35:26;;;;;;;2.20;1.37;;;;;;;14.89;92.16;155184.66;5032980;28;20454;-77
2022/09/09 02:37:56;;;;;;;5.43;1.50;;;;;;;14.89;91.58;155184.66;5050269;28;20482;-77
2022/09/09 02:40:23;;;;;;;3.43;1.70;;;;;;;14.89;89.52;155184.66;5067045;28;20438;-77
2022/09/09 02:42:59;;;;;;;2.93;1.63;;;;;;;14.87;91.07;155179.47;5066878;28;20549;-77
2022/09/09 02:45:34;;;;;;;3.80;1.30;;;;;;;14.82;91.76;155166.47;5048906;28;20542;-77
2022/09/09 02:48:06;;;;;;;1.93;1.20;;;;;;;14.80;92.39;155162.56;5033549;28;20833;-77
2022/09/09 02:50:34;;;;;;;3.07;1.30;;;;;;;14.83;91.33;155169.06;5066767;28;20492;-77
2022/09/09 02:53:09;;;;;;;2.00;1.20;;;;;;;14.78;91.52;155157.38;5049721;28;20478;-77
2022/09/09 02:55:42;;;;;;;1.93;1.27;;;;;;;14.70;91.57;155135.28;5032993;28;20458;-77
2022/09/09 02:58:12;;;;;;;2.03;1.50;;;;;;;14.68;92.58;155131.41;5033550;28;20449;-77
2022/09/09 03:00:41;;;;;;;5.43;1.30;;;;;;;14.66;93.12;155124.91;5033463;28;20447;-77
2022/09/09 03:03:09;;;;;;;2.13;1.50;;;;;;;14.63;92.70;155119.72;5033061;28;20537;-77
2022/09/09 03:05:37;;;;;;;4.77;1.47;;;;;;;14.63;92.26;155118.41;5049338;28;20977;-77
2022/09/09 03:08:05;;;;;;;2.97;1.33;;;;;;;14.60;92.45;155111.94;5047770;28;20510;-77
2022/09/09 03:10:32;;;;;;;2.50;1.57;;;;;;;14.59;93.71;155109.31;5070294;28;20441;-77
2022/09/09 03:12:59;;;;;;;6.63;1.40;;;;;;;14.56;94.08;155101.50;5039536;28;20470;-77
2022/09/09 03:15:30;;;;;;;10.07;1.70;;;;;;;14.57;94.00;155102.81;5036692;28;20442;-77
2022/09/09 03:17:59;;;;;;;1.30;1.00;;;;;;;14.60;94.11;155111.94;5037140;28;20872;-77
2022/09/09 03:20:28;;;;;;;3.00;1.50;;;;;;;14.64;92.51;155121.00;5037127;28;20493;-77
2022/09/09 03:22:55;;;;;;;2.27;1.40;;;;;;;14.64;93.53;155122.28;5051553;28;20460;-77
2022/09/09 03:25:23;;;;;;;1.60;1.10;;;;;;;14.56;93.24;155101.50;5052863;28;20470;-77
2022/09/09 03:27:54;;;;;;;1.67;1.07;;;;;;;14.57;93.91;155104.13;5041112;28;20513;-77
2022/09/09 03:30:21;;;;;;;4.17;2.10;;;;;;;14.54;93.63;155096.31;5036764;28;20453;-76
2022/09/09 03:32:48;;;;;;;3.87;2.27;;;;;;;14.54;94.66;155096.31;5053590;28;20472;-77
2022/09/09 03:35:16;;;;;;;4.70;1.50;;;;;;;14.51;94.81;155088.53;5054387;28;20477;-77
2022/09/09 03:37:43;;;;;;;1.47;1.23;;;;;;;14.51;94.12;155087.22;5054356;28;20438;-77
2022/09/09 03:40:12;;;;;;;3.37;1.40;;;;;;;14.47;93.27;155078.16;5053306;28;20434;-77
2022/09/09 03:42:39;;;;;;;2.83;1.60;;;;;;;14.47;94.93;155078.16;5031169;28;20462;-77
2022/09/09 03:45:07;;;;;;;4.03;1.53;;;;;;;14.49;95.68;155083.34;5036185;28;20467;-76
2022/09/09 03:47:34;;;;;;;2.00;1.50;;;;;;;14.43;94.13;155067.75;5036104;28;20512;-77
2022/09/09 03:50:08;;;;;;;1.73;1.50;;;;;;;14.46;95.40;155075.53;5054310;28;20475;-77
2022/09/09 03:52:37;;;;;;;2.90;1.43;;;;;;;14.45;94.60;155072.97;5053204;28;20447;-77
2022/09/09 03:55:06;;;;;;;2.70;1.40;;;;;;;14.46;95.38;155075.53;5036482;28;20481;-77
2022/09/09 03:57:34;;;;;;;1.90;1.30;;;;;;;14.48;96.95;155080.72;5054156;28;20443;-77
2022/09/09 04:00:03;;;;;;;3.73;1.50;;;;;;;14.44;95.78;155070.38;5051340;28;20455;-77
2022/09/09 04:02:32;;;;;;;1.70;1.30;;;;;;;14.44;95.37;155069.06;5052870;28;20441;-77
2022/09/09 04:04:59;;;;;;;3.73;1.70;;;;;;;14.41;95.64;155061.25;5052578;28;20477;-77
2022/09/09 04:07:28;;;;;;;2.07;1.50;;;;;;;14.41;95.92;155061.25;5052446;28;20466;-77
2022/09/09 04:09:56;;;;;;;2.73;1.30;;;;;;;14.41;95.96;155062.56;5036119;28;20459;-77
2022/09/09 04:12:23;;;;;;;3.60;1.80;;;;;;;14.38;95.71;155054.75;5035967;28;20561;-77
2022/09/09 04:14:50;;;;;;;1.83;1.57;;;;;;;14.35;97.08;155045.72;5035916;28;20514;-77
2022/09/09 04:17:17;;;;;;;3.50;2.10;;;;;;;14.34;95.98;155043.09;5052292;28;20443;-77
2022/09/09 04:19:43;;;;;;;5.47;2.00;;;;;;;14.30;96.16;155033.94;5052064;28;20451;-77
2022/09/09 04:22:10;;;;;;;2.57;1.60;;;;;;;14.22;96.14;155013.16;5052283;28;20495;-77
2022/09/09 04:24:37;;;;;;;3.00;2.13;;;;;;;14.23;96.29;155015.78;5052033;28;20477;-77
2022/09/09 04:27:06;;;;;;;2.03;1.40;;;;;;;14.21;96.63;155010.59;5035910;28;20533;-77
2022/09/09 04:29:35;;;;;;;2.30;1.80;;;;;;;14.23;98.61;155015.78;5035658;28;20447;-77
2022/09/09 04:32:02;;;;;;;2.20;1.57;;;;;;;14.27;97.35;155026.13;5035903;28;20497;-76
2022/09/09 04:34:30;;;;;;;2.33;1.33;;;;;;;14.30;97.33;155033.94;5035235;28;20796;-77
2022/09/09 04:36:57;;;;;;;1.80;1.60;;;;;;;14.31;97.99;155036.59;5068998;28;20670;-77
2022/09/09 04:39:24;;;;;;;2.40;1.57;;;;;;;14.31;98.46;155036.59;5051678;28;20458;-77
2022/09/09 04:41:51;;;;;;;3.10;1.63;;;;;;;14.31;97.94;155035.25;5053458;28;20872;-77
2022/09/09 04:44:20;;;;;;;3.53;1.90;;;;;;;14.30;97.61;155032.63;5068629;28;20828;-77
2022/09/09 04:46:47;;;;;;;2.00;1.60;;;;;;;14.36;98.27;155048.28;5051646;28;20968;-77
2022/09/09 04:49:14;;;;;;;2.53;1.83;;;;;;;14.39;97.69;155057.38;5051791;28;20487;-77
2022/09/09 04:51:42;;;;;;;4.13;1.87;;;;;;;14.39;98.41;155057.38;5034376;28;20446;-77
2022/09/09 04:54:10;;;;;;;3.10;1.73;;;;;;;14.35;100.00;155046.97;5035181;28;20991;-77
2022/09/09 04:56:43;;;;;;;5.60;2.33;;;;;;;14.34;100.00;155043.09;5051927;28;20501;-77
2022/09/09 04:59:11;;;;;;;3.57;1.53;;;;;;;14.36;100.00;155049.59;5033250;28;20949;-77
2022/09/09 05:01:44;;;;;;;3.60;2.10;;;;;;;14.25;100.00;155019.66;5035653;28;20935;-77
2022/09/09 05:04:12;;;;;;;1.80;1.50;;;;;;;14.25;100.00;155020.94;5031420;28;20479;-77
2022/09/09 05:06:38;;;;;;;3.30;1.53;;;;;;;14.25;100.00;155020.94;5050977;28;20454;-77
2022/09/09 05:09:05;;;;;;;4.07;1.77;;;;;;;14.23;100.00;155015.78;5051281;28;20454;-77
2022/09/09 05:11:34;;;;;;;3.03;1.60;;;;;;;14.23;100.00;155015.78;5068470;28;20435;-77
2022/09/09 05:14:06;;;;;;;2.60;1.73;;;;;;;14.23;100.00;155015.78;5068239;28;20454;-78
2022/09/09 05:16:34;;;;;;;2.17;1.73;;;;;;;14.20;100.00;155006.66;5050395;28;20451;-77
2022/09/09 05:19:03;;;;;;;1.73;1.63;;;;;;;14.20;100.00;155007.97;5051041;28;20818;-77
2022/09/09 05:21:37;;;;;;;3.17;1.70;;;;;;;14.28;100.00;155028.75;5035141;28;20427;-77
2022/09/09 05:24:04;;;;;;;2.97;1.90;;;;;;;14.33;99.92;155040.47;5034501;28;20570;-77
2022/09/09 05:26:32;;;;;;;2.97;1.70;;;;;;;14.38;100.00;155053.47;5050583;28;20776;-77
2022/09/09 05:29:00;;;;;;;3.30;1.83;;;;;;;14.44;100.00;155070.38;5034638;28;20431;-77
2022/09/09 05:31:28;;;;;;;1.83;1.63;;;;;;;14.48;99.55;155080.72;5034112;28;20465;-77
2022/09/09 05:33:55;;;;;;;2.23;1.30;;;;;;;14.51;99.30;155088.53;5034811;28;20474;-77
2022/09/09 05:36:23;;;;;;;2.23;1.60;;;;;;;14.57;99.13;155104.13;5039991;28;20455;-77
2022/09/09 05:38:55;;;;;;;1.97;1.43;;;;;;;14.61;99.43;155114.50;5031157;28;20506;-77
2022/09/09 05:41:22;;;;;;;4.13;2.30;;;;;;;14.62;99.76;155115.81;5034308;28;20446;-77
2022/09/09 05:43:50;;;;;;;2.37;1.80;;;;;;;14.68;99.13;155130.09;5050651;28;20534;-77
2022/09/09 05:46:21;;;;;;;2.57;1.80;;;;;;;14.73;99.00;155143.09;5030732;28;20451;-77
2022/09/09 05:48:51;;;;;;;2.90;1.90;;;;;;;14.72;98.33;155141.78;5030742;28;20483;-77
2022/09/09 05:51:21;;;;;;;2.30;1.67;;;;;;;14.77;98.70;155154.81;5028480;28;20442;-77
2022/09/09 05:53:50;;;;;;;2.30;1.60;;;;;;;14.80;98.21;155161.31;5050585;28;20466;-77
2022/09/09 05:56:19;;;;;;;2.53;2.30;;;;;;;14.83;98.65;155169.06;5033623;28;20419;-77
2022/09/09 05:58:46;;;;;;;3.33;1.87;;;;;;;14.84;99.20;155171.66;5033635;28;20443;-77
2022/09/09 06:01:15;;;;;;;3.23;1.80;;;;;;;14.86;98.81;155176.84;5034017;28;20851;-77
2022/09/09 06:03:44;;;;;;;2.97;1.40;;;;;;;14.92;98.67;155192.47;5033915;28;20439;-77
2022/09/09 06:06:11;;;;;;;1.63;1.30;;;;;;;14.94;97.77;155198.94;5033576;28;20462;-77
2022/09/09 06:08:40;;;;;;;3.00;1.93;;;;;;;15.03;98.08;155221.03;5066888;28;20450;-77
2022/09/09 06:11:10;;;;;;;2.43;1.70;;;;;;;15.04;98.91;155223.63;5047557;28;21007;-77
2022/09/09 06:13:38;;;;;;;2.53;1.90;;;;;;;15.04;97.62;155224.94;5033929;28;20453;-78
2022/09/09 06:16:07;;;;;;;2.57;1.70;;;;;;;15.06;99.03;155228.84;5033286;28;20442;-77
2022/09/09 06:18:33;;;;;;;2.83;1.40;;;;;;;15.11;98.23;155241.84;5033572;28;20803;-77
2022/09/09 06:21:04;;;;;;;3.17;1.77;;;;;;;15.09;99.28;155236.66;5033540;28;20446;-77
2022/09/09 06:23:31;;;;;;;4.00;2.13;;;;;;;15.13;98.27;155247.03;5050513;28;20435;-78
2022/09/09 06:26:06;;;;;;;2.97;2.00;;;;;;;15.15;98.58;155253.53;5049671;28;20474;-77
2022/09/09 06:28:36;;;;;;;3.40;1.60;;;;;;;15.22;97.86;155270.44;5028661;28;20489;-77
2022/09/09 06:31:05;;;;;;;2.83;1.70;;;;;;;15.26;97.53;155280.81;5025791;28;20447;-78
2022/09/09 06:33:34;;;;;;;2.50;1.50;;;;;;;15.27;97.73;155283.44;5049912;28;20458;-77
2022/09/09 06:36:03;;;;;;;1.80;1.53;;;;;;;15.34;97.43;155301.59;5049039;28;20451;-77
2022/09/09 06:38:30;;;;;;;1.87;1.43;;;;;;;15.41;97.62;155318.53;5048169;28;20538;-78
2022/09/09 06:40:58;;;;;;;3.80;1.57;;;;;;;15.46;98.46;155332.81;5032135;28;20427;-77
2022/09/09 06:43:25;;;;;;;3.53;1.60;;;;;;;15.50;99.04;155343.25;5032673;28;20447;-78
2022/09/09 06:45:59;;;;;;;4.53;1.40;;;;;;;15.54;97.95;155353.63;5036911;28;20470;-77
2022/09/09 06:48:27;;;;;;;2.80;1.67;;;;;;;15.61;98.64;155370.53;5035593;28;20467;-78
2022/09/09 06:54:03;;;;;;;2.70;1.73;;;;;;;15.76;97.67;155410.84;5040116;28;20446;-78
2022/09/09 06:56:31;;;;;;;3.20;1.73;;;;;;;15.83;97.28;155429.03;5034580;28;20431;-78
2022/09/09 06:59:00;;;;;;;2.03;1.70;;;;;;;15.94;97.86;155456.31;5036141;28;20438;-78
2022/09/09 07:01:32;;;;;;;1.90;1.60;;;;;;;16.02;97.12;155477.13;5036248;28;20430;-78
2022/09/09 07:04:07;;;;;;;3.00;1.80;;;;;;;16.10;96.78;155496.63;5036601;28;20462;-77
2022/09/09 07:06:36;;;;;;;2.10;1.60;;;;;;;16.17;96.76;155514.88;5049618;28;20435;-77
2022/09/09 07:09:05;;;;;;;2.23;1.60;;;;;;;16.26;95.50;155539.56;5053277;28;20850;-78
2022/09/09 07:11:35;;;;;;;2.50;1.77;;;;;;;16.36;94.65;155565.56;5053484;28;20778;-78
2022/09/09 07:14:02;;;;;;;3.50;1.70;;;;;;;16.41;94.69;155577.28;5036700;28;20457;-78
2022/09/09 07:16:33;;;;;;;2.33;1.50;;;;;;;16.50;93.63;155600.66;5054121;28;20441;-78
2022/09/09 07:19:02;;;;;;;2.20;1.80;;;;;;;16.60;95.18;155626.72;5053450;28;20537;-78
2022/09/09 07:21:30;;;;;;;3.50;1.87;;;;;;;16.75;94.04;155664.47;5054603;28;20431;-78
2022/09/09 07:23:58;;;;;;;3.73;1.80;;;;;;;17.01;94.78;155733.44;5024177;28;20558;-78
2022/09/09 07:26:27;;;;;;;5.30;1.80;;;;;;;17.75;94.06;155923.50;5045127;28;20531;-77
2022/09/09 07:28:55;;;;;;;2.07;1.60;;;;;;;18.36;89.30;156079.75;5036279;28;20455;-77
2022/09/09 07:31:25;;;;;;;1.83;1.60;;;;;;;19.06;88.75;156260.91;5035970;28;20500;-77
2022/09/09 07:33:54;;;;;;;1.93;1.50;;;;;;;19.54;83.82;156384.78;5036867;28;20524;-75
2022/09/09 07:36:27;;;;;;;4.60;1.60;;;;;;;19.44;81.90;156361.31;5037958;28;20816;-75
2022/09/09 07:38:56;;;;;;;2.93;1.67;;;;;;;19.32;80.82;156328.69;5058661;28;20522;-76
2022/09/09 07:41:25;;;;;;;1.70;1.43;;;;;;;19.16;79.73;156288.28;5035880;28;20565;-76
2022/09/09 07:43:53;;;;;;;1.90;1.37;;;;;;;19.36;81.08;156340.41;5055447;28;20959;-76
2022/09/09 07:46:23;;;;;;;3.00;1.60;;;;;;;19.84;79.11;156463.00;5053084;28;20532;-75
2022/09/09 07:48:52;;;;;;;2.27;1.40;;;;;;;20.19;79.15;156552.97;5036582;28;20834;-76
2022/09/09 07:51:23;;;;;;;3.30;1.73;;;;;;;20.55;77.11;156648.22;5036562;28;20453;-78
2022/09/09 07:53:54;;;;;;;4.97;1.63;;;;;;;21.03;75.10;156770.88;5053388;28;20496;-76
2022/09/09 07:56:23;;;;;;;4.53;1.30;;;;;;;21.64;72.34;156928.84;5052259;28;20453;-76
2022/09/09 07:58:50;;;;;;;2.37;1.50;;;;;;;21.70;71.60;156945.84;5036205;28;20830;-76
2022/09/09 08:01:19;;;;;;;1.60;1.23;;;;;;;21.99;69.13;157019.00;5052193;28;20463;-78
2022/09/09 08:03:46;;;;;;;3.13;1.30;;;;;;;22.16;67.25;157063.41;5053436;28;20451;-79
2022/09/09 08:06:28;;;;;;;2.47;1.33;;;;;;;22.43;68.20;157133.91;5056430;28;20453;-78
2022/09/09 08:08:58;;;;;;;2.17;1.30;;;;;;;22.77;64.90;157221.53;5067681;28;20412;-77
2022/09/09 08:11:29;;;;;;;8.50;1.70;;;;;;;22.54;65.21;157162.66;5051126;28;20471;-77
2022/09/09 08:13:57;;;;;;;2.50;1.40;;;;;;;22.27;66.08;157093.44;5032621;28;20439;-77
2022/09/09 08:16:25;;;;;;;2.03;1.40;;;;;;;22.33;67.60;157107.78;5049442;28;20945;-77
2022/09/09 08:18:53;;;;;;;2.10;1.60;;;;;;;22.58;66.00;157173.13;5051350;28;20443;-77
2022/09/09 08:21:24;;;;;;;2.17;1.37;;;;;;;22.89;66.15;157252.84;5050840;28;20798;-77
2022/09/09 08:23:53;;;;;;;3.03;1.40;;;;;;;23.04;64.66;157293.34;5052750;28;20837;-77
2022/09/09 08:26:23;;;;;;;4.13;1.70;;;;;;;23.03;65.06;157289.47;5035773;28;20475;-77
2022/09/09 08:28:51;;;;;;;2.70;1.20;;;;;;;23.22;64.83;157339.06;5052229;28;20477;-77
2022/09/09 08:31:19;;;;;;;2.93;1.60;;;;;;;23.31;64.22;157361.31;5053322;28;20454;-77
2022/09/09 08:33:53;;;;;;;2.57;1.33;;;;;;;23.23;62.86;157340.41;5052582;28;20434;-79
2022/09/09 08:36:23;;;;;;;2.70;1.57;;;;;;;23.30;64.00;157360.00;5052777;28;20493;-77
2022/09/09 08:38:54;;;;;;;1.97;1.10;;;;;;;23.42;63.52;157391.44;5069732;28;20454;-77
2022/09/09 08:42:02;;;;;;;3.30;1.67;;;;;;;23.52;63.47;157417.56;5034769;28;20455;-77
2022/09/09 08:44:42;;;;;;;2.87;1.30;;;;;;;23.52;62.31;157417.56;5029981;28;20462;-77
2022/09/09 08:47:16;;;;;;;1.90;1.07;;;;;;;23.52;61.86;157416.25;5033116;28;20427;-77
2022/09/09 08:49:53;;;;;;;3.30;1.40;;;;;;;23.63;61.93;157445.03;5046575;28;20576;-77
2022/09/09 08:52:28;;;;;;;2.00;1.37;;;;;;;23.45;62.44;157397.97;5058382;28;20463;-77
2022/09/09 08:54:58;;;;;;;2.80;1.10;;;;;;;23.41;62.38;157388.81;5070286;28;20440;-77
2022/09/09 08:57:27;;;;;;;3.80;1.37;;;;;;;23.29;63.27;157357.41;5053393;28;20482;-77
2022/09/09 08:59:56;;;;;;;1.97;1.30;;;;;;;23.31;62.14;157361.31;5052137;28;20488;-77
2022/09/09 09:02:27;;;;;;;2.17;1.13;;;;;;;23.34;61.64;157369.16;5035304;28;20442;-77
2022/09/09 09:05:02;;;;;;;3.83;1.20;;;;;;;23.23;61.35;157340.41;5034920;28;20447;-77
2022/09/09 09:07:49;;;;;;;2.97;1.10;;;;;;;23.32;63.42;157363.94;5033767;28;20693;-77
2022/09/09 09:10:40;;;;;;;2.07;1.20;;;;;;;23.32;62.01;157365.25;5067978;28;20434;-77
2022/09/09 09:13:14;;;;;;;2.30;1.00;;;;;;;23.51;60.12;157413.69;5070157;28;20433;-77
2022/09/09 09:15:42;;;;;;;2.23;1.00;;;;;;;23.52;59.28;157416.25;5066590;28;20450;-77
2022/09/09 09:18:12;;;;;;;3.60;1.07;;;;;;;23.41;59.83;157388.81;5032945;28;20841;-77
2022/09/09 09:20:45;;;;;;;3.10;1.53;;;;;;;23.28;64.10;157354.78;5033586;28;20779;-77
2022/09/09 09:23:20;;;;;;;3.30;0.90;;;;;;;23.25;58.45;157346.94;5049631;28;20477;-77
2022/09/09 09:25:47;;;;;;;2.10;1.13;;;;;;;23.03;59.50;157289.47;5033494;28;20512;-77
2022/09/09 09:28:17;;;;;;;3.00;1.00;;;;;;;22.51;61.68;157154.81;5032624;28;20442;-77
2022/09/09 09:30:50;;;;;;;5.00;1.20;;;;;;;22.05;70.91;157036.00;5032374;28;20467;-76
2022/09/09 09:33:23;;;;;;;6.93;1.87;;;;;;;21.46;76.19;156881.88;5033399;28;20538;-76
2022/09/09 09:35:50;;;;;;;4.80;1.97;;;;;;;20.86;80.65;156726.53;5034039;28;20861;-78
2022/09/09 09:38:22;;;;;;;2.37;1.20;;;;;;;20.50;85.40;156635.19;5032844;28;20442;-77
2022/09/09 09:40:55;;;;;;;1.73;1.20;;;;;;;20.28;82.53;156577.78;5033054;28;20856;-77
2022/09/09 09:43:25;;;;;;;3.40;0.90;;;;;;;20.24;83.25;156567.38;5033546;28;20529;-77
2022/09/09 09:45:52;;;;;;;2.00;1.00;;;;;;;20.12;85.45;156536.00;5033921;28;20478;-77
2022/09/09 09:48:26;;;;;;;1.77;1.00;;;;;;;20.15;85.51;156543.81;5032792;28;20502;-77
2022/09/09 09:51:53;;;;;;;2.17;1.00;;;;;;;20.02;87.69;156509.91;5066322;28;20446;-77
2022/09/09 09:54:27;;;;;;;2.00;1.10;;;;;;;19.91;87.65;156481.22;4982538;28;20871;-77
2022/09/09 09:57:09;;;;;;;5.83;1.27;;;;;;;19.87;87.02;156470.81;5048777;28;21020;-77
2022/09/09 09:59:38;;;;;;;2.70;1.10;;;;;;;19.90;86.97;156479.97;5032843;28;20492;-77
2022/09/09 10:02:17;;;;;;;1.90;1.20;;;;;;;20.04;87.59;156515.19;5033306;28;20538;-77
2022/09/09 10:04:46;;;;;;;2.53;1.20;;;;;;;20.09;87.10;156528.22;5024499;28;20434;-78
2022/09/09 10:07:16;;;;;;;2.70;1.10;;;;;;;20.23;89.62;156564.69;5045370;28;20489;-77
2022/09/09 10:09:44;;;;;;;2.60;1.30;;;;;;;20.22;86.60;156562.13;5047959;28;20467;-78
2022/09/09 10:12:20;;;;;;;2.20;1.17;;;;;;;20.19;85.49;156554.28;5050836;28;20554;-77
2022/09/09 10:15:01;;;;;;;4.40;1.17;;;;;;;20.19;87.40;156552.97;5044581;28;20445;-78
2022/09/09 10:17:36;;;;;;;4.30;1.60;;;;;;;20.32;91.75;156588.25;5047235;28;20443;-78
2022/09/09 10:20:19;;;;;;;4.00;2.07;;;;;;;20.27;83.62;156575.19;5048225;28;20414;-78
2022/09/09 10:22:50;;;;;;;3.63;1.57;;;;;;;20.34;89.85;156592.13;5031296;28;20431;-78
2022/09/09 10:25:36;;;;;;;3.40;1.43;;;;;;;20.37;84.67;156601.28;5082619;22;20585;-85
2022/09/09 10:28:34;;;;;;;2.33;1.50;;;;;;;20.53;82.25;156643.03;5020815;28;20444;-85
2022/09/09 10:31:11;;;;;;;2.53;1.30;;;;;;;20.40;81.12;156609.09;5019525;28;20435;-85
2022/09/09 10:34:01;;;;;;;1.73;1.40;;;;;;;20.37;83.70;156599.97;5039946;28;20449;-85
2022/09/09 10:36:46;;;;;;;1.80;1.40;;;;;;;20.39;78.87;156606.47;5015963;28;20443;-84
2022/09/09 10:39:21;;;;;;;3.07;1.47;;;;;;;20.46;82.23;156624.78;5001769;28;20456;-85
2022/09/09 10:41:57;;;;;;;1.83;1.60;;;;;;;20.64;82.29;156671.72;5023187;28;20453;-85
2022/09/09 10:44:35;;;;;;;2.60;1.30;;;;;;;20.67;81.37;156676.94;5037343;28;20847;-84
2022/09/09 10:47:21;;;;;;;3.47;1.70;;;;;;;20.75;76.83;156697.81;5014815;28;20459;-85
2022/09/09 10:50:04;;;;;;;3.17;1.80;;;;;;;20.73;79.29;156692.63;5015825;28;20474;-85
2022/09/09 10:52:37;;;;;;;3.13;1.60;;;;;;;20.72;76.50;156689.97;5006869;28;20496;-85
2022/09/09 10:55:11;;;;;;;2.03;1.53;;;;;;;20.71;75.65;156687.34;5018597;28;20443;-85
2022/09/09 10:57:42;;;;;;;4.80;1.33;;;;;;;20.65;77.22;156673.03;5022157;28;20519;-85
2022/09/09 11:00:17;;;;;;;3.07;1.70;;;;;;;20.76;81.04;156700.44;5037599;28;20439;-85
2022/09/09 11:02:44;;;;;;;1.90;1.20;;;;;;;20.87;81.01;156729.09;5039326;28;20429;-85
2022/09/09 11:05:16;;;;;;;4.57;1.20;;;;;;;20.91;75.07;156739.56;5040729;28;20438;-85
2022/09/09 11:07:47;;;;;;;4.03;1.50;;;;;;;21.05;79.48;156776.06;5013285;28;20468;-85
2022/09/09 11:10:22;;;;;;;2.63;1.53;;;;;;;21.06;76.42;156778.69;5031191;28;20443;-85
2022/09/09 11:12:51;;;;;;;2.20;1.30;;;;;;;20.99;79.93;156760.44;5013734;28;20427;-85
2022/09/09 11:15:22;;;;;;;2.03;1.30;;;;;;;20.98;79.76;156759.13;5013015;28;20502;-85
2022/09/09 11:17:51;;;;;;;2.70;1.37;;;;;;;21.02;75.51;156768.28;5011450;28;20896;-85
2022/09/09 11:20:18;;;;;;;2.03;1.40;;;;;;;21.04;79.49;156774.81;4993913;28;20457;-85
2022/09/09 11:22:49;;;;;;;2.83;1.50;;;;;;;21.07;77.46;156782.69;5008444;28;20550;-84
2022/09/09 11:25:18;;;;;;;2.00;1.60;;;;;;;21.10;79.96;156789.22;5012999;28;20665;-84
2022/09/09 11:27:58;;;;;;;1.80;1.20;;;;;;;21.09;78.90;156786.59;5031154;28;20466;-84
2022/09/09 11:30:29;;;;;;;6.13;1.70;;;;;;;20.98;76.73;156757.81;5015499;28;20439;-84
2022/09/09 11:33:09;;;;;;;1.87;1.30;;;;;;;20.91;80.32;156739.56;5034467;28;20781;-86
2022/09/09 11:35:46;;;;;;;2.43;1.23;;;;;;;20.82;79.46;156716.06;4996320;28;20468;-85
2022/09/09 11:38:27;;;;;;;3.63;1.17;;;;;;;20.49;72.30;156632.56;5008515;28;20539;-85
2022/09/09 11:40:59;;;;;;;1.00;0.70;;;;;;;20.44;71.39;156618.22;5015505;28;20506;-85
2022/09/09 11:43:30;;;;;;;1.27;0.80;;;;;;;20.36;72.13;156597.38;5015489;28;20450;-85
2022/09/09 11:45:59;;;;;;;1.20;0.80;;;;;;;20.20;68.46;156555.59;5012005;28;20523;-84
2022/09/09 11:48:30;;;;;;;3.93;1.13;;;;;;;20.10;67.17;156530.78;4991315;28;20443;-84